createdAt,value
2019-03-10T00:00:27.089Z,99.9
2019-03-10T00:05:29.425Z,99.9
2019-03-10T00:10:31.920Z,99.9
2019-03-10T00:15:34.439Z,99.9
2019-03-10T00:20:36.821Z,99.9
2019-03-10T00:25:39.282Z,99.9
2019-03-10T00:30:41.758Z,90.7
2019-03-10T00:35:44.219Z,85.1
2019-03-10T00:40:46.770Z,81.2
2019-03-10T00:45:49.127Z,73.9
2019-03-10T00:50:51.570Z,72.7
2019-03-10T00:55:54.155Z,72.1
2019-03-10T01:00:56.520Z,63.9
2019-03-10T01:05:59.182Z,62.1
2019-03-10T01:11:01.477Z,57.1
2019-03-10T01:16:03.904Z,56.9
2019-03-10T01:21:06.333Z,60.3
2019-03-10T01:26:08.877Z,63.7
2019-03-10T01:31:11.638Z,65.2
2019-03-10T01:46:18.646Z,65.3
2019-03-10T01:51:21.138Z,69.2
2019-03-10T01:56:23.618Z,66.9
2019-03-10T02:01:25.999Z,72.6
2019-03-10T02:06:28.443Z,90.8
2019-03-10T02:11:30.934Z,96.8
2019-03-10T02:16:33.509Z,99.9
2019-03-10T02:21:35.817Z,99.9
2019-03-10T02:26:38.370Z,99.9
2019-03-10T02:31:41.076Z,99.9
2019-03-10T02:36:48.275Z,99.9
2019-03-10T02:41:45.642Z,98.3
2019-03-10T02:46:48.155Z,94.6
2019-03-10T02:51:50.599Z,90
2019-03-10T02:56:53.117Z,84
2019-03-10T03:06:57.932Z,77.6
2019-03-10T03:12:00.410Z,73.9
2019-03-10T03:17:07.831Z,64.7
2019-03-10T03:22:05.306Z,63.3
2019-03-10T03:27:07.831Z,59.5
2019-03-10T03:32:10.215Z,58.2
2019-03-10T03:37:12.695Z,58.1
2019-03-10T03:42:15.150Z,56.6
2019-03-10T03:47:17.687Z,51.7
2019-03-10T03:52:20.084Z,54.9
2019-03-10T03:57:22.523Z,51.5
2019-03-10T04:02:24.977Z,45.9
2019-03-10T04:07:27.425Z,43.7
2019-03-10T04:12:29.898Z,41.7
2019-03-10T04:17:32.422Z,37.6
2019-03-10T04:22:34.822Z,32.9
2019-03-10T04:27:37.325Z,35
2019-03-10T04:32:39.705Z,33
2019-03-10T04:37:42.164Z,35.2
2019-03-10T04:42:44.601Z,33
2019-03-10T04:47:47.111Z,33.7
2019-03-10T04:52:49.554Z,32.6
2019-03-10T04:57:52.060Z,34.4
2019-03-10T05:02:54.457Z,34.4
2019-03-10T05:07:56.928Z,39.5
2019-03-10T05:18:01.833Z,49.4
2019-03-10T05:23:04.298Z,57.9
2019-03-10T05:28:06.840Z,64
2019-03-10T05:33:09.201Z,63.3
2019-03-10T05:38:11.806Z,67.5
2019-03-10T05:43:14.101Z,62.7
2019-03-10T05:48:16.616Z,71.4
2019-03-10T05:53:19.083Z,82.4
2019-03-10T05:58:21.472Z,93.1
2019-03-10T06:03:23.927Z,99.9
2019-03-10T06:08:26.377Z,99.9
2019-03-10T06:13:28.846Z,99.9
2019-03-10T06:18:31.341Z,99.9
2019-03-10T06:23:33.839Z,99.9
2019-03-10T06:28:36.310Z,99.9
2019-03-10T06:33:38.662Z,99.9
2019-03-10T06:38:41.164Z,99.9
2019-03-10T06:43:43.593Z,99.9
2019-03-10T06:48:46.036Z,98.4
2019-03-10T06:53:48.496Z,97.1
2019-03-10T06:58:51.027Z,95.5
2019-03-10T07:03:53.449Z,93.5
2019-03-10T07:08:55.905Z,87
2019-03-10T07:13:58.327Z,69.6
2019-03-10T07:19:00.814Z,73.4
2019-03-10T07:24:03.269Z,54.6
2019-03-10T07:29:05.726Z,29.8
2019-03-10T07:34:08.182Z,26.4
2019-03-10T07:39:10.719Z,21.8
2019-03-10T07:44:13.121Z,10.9
2019-03-10T07:49:17.955Z,8.5
2019-03-10T07:54:17.989Z,15.5
2019-03-10T07:59:20.517Z,39
2019-03-10T08:04:22.907Z,76.7
2019-03-10T08:09:25.357Z,95.9
2019-03-10T08:14:27.819Z,99.9
2019-03-10T08:19:30.274Z,99.9
2019-03-10T08:24:32.723Z,99.9
2019-03-10T08:29:35.206Z,99.9
2019-03-10T08:34:37.643Z,99.9
2019-03-10T08:39:40.090Z,99.9
2019-03-10T08:44:42.570Z,99.9
2019-03-10T08:49:45.655Z,99.9
2019-03-10T08:54:47.501Z,99.9
2019-03-10T08:59:49.941Z,99.9
2019-03-10T09:04:52.393Z,99.9
2019-03-10T09:09:54.861Z,99.9
2019-03-10T09:14:57.337Z,99.9
2019-03-10T09:19:59.773Z,99.9
2019-03-10T09:25:02.227Z,99.9
2019-03-10T09:30:04.773Z,99.9
2019-03-10T09:35:07.150Z,99.9
2019-03-10T09:40:09.646Z,99.9
2019-03-10T09:45:12.049Z,99.9
2019-03-10T09:50:14.498Z,99.9
2019-03-10T09:55:17.001Z,99.9
2019-03-10T10:00:19.516Z,99.9
2019-03-10T10:05:21.944Z,99.9
2019-03-10T10:10:24.391Z,99.9
2019-03-10T10:15:26.787Z,99.9
2019-03-10T10:20:29.339Z,99.9
2019-03-10T10:25:31.748Z,99.9
2019-03-10T10:30:34.260Z,99.9
2019-03-10T10:35:36.615Z,99.9
2019-03-10T10:40:39.134Z,99.9
2019-03-10T10:45:41.531Z,99.9
2019-03-10T10:50:44.010Z,99.9
2019-03-10T10:55:46.527Z,99.9
2019-03-10T11:00:48.979Z,99.9
2019-03-10T11:05:51.387Z,99.9
2019-03-10T11:10:53.869Z,99.9
2019-03-10T11:15:56.312Z,99.9
2019-03-10T11:20:58.751Z,99.9
2019-03-10T11:26:01.291Z,99.9
2019-03-10T11:31:03.731Z,99.9
2019-03-10T11:36:06.105Z,99.9
2019-03-10T11:41:08.573Z,99.9
2019-03-10T11:46:11.015Z,99.9
2019-03-10T11:51:13.490Z,99.9
2019-03-10T11:56:15.925Z,99.9
2019-03-10T12:01:18.406Z,99.9
2019-03-10T12:06:20.864Z,99.9
2019-03-10T12:11:23.380Z,52.5
2019-03-10T12:16:25.824Z,57
2019-03-10T12:21:28.225Z,18.7
2019-03-10T12:26:30.769Z,16.2
2019-03-10T12:31:33.143Z,18.7
2019-03-10T12:36:35.785Z,53.4
2019-03-10T12:41:38.061Z,96
2019-03-10T12:46:40.505Z,93.7
2019-03-10T12:51:42.977Z,37.1
2019-03-10T12:56:45.427Z,21.2
2019-03-10T13:01:47.945Z,39.7
2019-03-10T13:06:50.355Z,31.8
2019-03-10T13:11:52.858Z,51.7
2019-03-10T13:16:55.288Z,42.8
2019-03-10T13:21:57.829Z,29.3
2019-03-10T13:27:00.183Z,1
2019-03-10T13:32:02.738Z,1
2019-03-10T13:37:05.086Z,1
2019-03-10T13:42:07.568Z,1
2019-03-10T13:47:10.009Z,1
2019-03-10T13:52:12.455Z,1
2019-03-10T13:57:14.916Z,1
2019-03-10T14:02:17.389Z,1
2019-03-10T14:07:19.819Z,28.2
2019-03-10T14:12:22.333Z,88
2019-03-10T14:17:24.729Z,99.9
2019-03-10T14:22:27.270Z,99.9
2019-03-10T14:27:29.667Z,99.9
2019-03-10T14:32:32.118Z,99.9
2019-03-10T14:37:34.566Z,99.9
2019-03-10T14:42:37.044Z,99.9
2019-03-10T14:47:39.497Z,99.9
2019-03-10T14:52:41.950Z,99.9
2019-03-10T14:57:44.413Z,99.9
2019-03-10T15:02:47.585Z,99.9
2019-03-10T15:07:49.324Z,99.9
2019-03-10T15:12:51.816Z,99.9
2019-03-10T15:17:54.226Z,99.9
2019-03-10T15:27:59.136Z,99.9
2019-03-10T15:33:01.623Z,99.9
2019-03-10T15:38:04.072Z,99.9
2019-03-10T15:43:06.532Z,99.9
2019-03-10T15:48:08.959Z,99.9
2019-03-10T15:53:11.425Z,99.9
2019-03-10T15:58:13.886Z,99.9
2019-03-10T16:03:16.492Z,99.9
2019-03-10T16:08:18.824Z,99.9
2019-03-10T16:13:21.317Z,99.9
2019-03-10T16:18:23.759Z,99.9
2019-03-10T16:23:26.181Z,99.9
2019-03-10T16:28:28.634Z,99.9
2019-03-10T16:33:31.161Z,99.9
2019-03-10T16:38:33.579Z,99.9
2019-03-10T16:43:36.066Z,99.9
2019-03-10T16:48:38.463Z,99.9
2019-03-10T16:53:41.894Z,99.9
2019-03-10T16:58:43.377Z,99.9
2019-03-10T17:03:45.854Z,99.9
2019-03-10T17:08:48.352Z,99.9
2019-03-10T17:13:50.802Z,99.9
2019-03-10T17:18:53.196Z,99.9
2019-03-10T17:23:55.676Z,99.9
2019-03-10T17:28:58.184Z,99.9
2019-03-10T17:34:00.650Z,99.9
2019-03-10T17:39:03.045Z,99.9
2019-03-10T17:44:05.823Z,99.9
2019-03-10T17:49:07.955Z,99.9
2019-03-10T17:54:10.409Z,99.9
2019-03-10T17:59:12.931Z,99.9
2019-03-10T18:04:15.326Z,99.9
2019-03-10T18:09:17.775Z,99.9
2019-03-10T18:14:20.537Z,99.9
2019-03-10T18:19:22.710Z,99.9
2019-03-10T18:24:25.138Z,65.6
2019-03-10T18:29:27.612Z,53.3
2019-03-10T18:34:30.060Z,27.2
2019-03-10T18:39:32.536Z,1.1
2019-03-10T18:44:35.282Z,1
2019-03-10T18:49:37.594Z,1
2019-03-10T18:54:39.894Z,1
2019-03-10T18:59:42.337Z,1
2019-03-10T19:04:44.923Z,1
2019-03-10T19:09:47.403Z,1
2019-03-10T19:14:50.125Z,1
2019-03-10T19:19:52.172Z,1
2019-03-10T19:24:54.623Z,1
2019-03-10T19:29:57.121Z,1
2019-03-10T19:34:59.567Z,1
2019-03-10T19:40:02.133Z,1
2019-03-10T19:45:04.783Z,1
2019-03-10T19:50:07.022Z,1
2019-03-10T19:55:09.412Z,1
2019-03-10T20:00:11.946Z,1
2019-03-10T20:05:14.299Z,1
2019-03-10T20:10:16.765Z,1
2019-03-10T20:15:19.286Z,1
2019-03-10T20:20:21.661Z,1
2019-03-10T20:25:24.170Z,1
2019-03-10T20:30:26.697Z,1
2019-03-10T20:35:29.054Z,1
2019-03-10T20:40:31.547Z,1
2019-03-10T20:45:34.279Z,1
2019-03-10T20:50:36.419Z,1
2019-03-10T20:55:38.885Z,1
2019-03-10T21:00:41.342Z,1
2019-03-10T21:05:43.809Z,1
2019-03-10T21:10:46.371Z,1
2019-03-10T21:15:49.091Z,1
2019-03-10T21:20:51.154Z,1
2019-03-10T21:25:53.639Z,1
2019-03-10T21:30:56.075Z,1
2019-03-10T21:35:58.543Z,1
2019-03-10T21:41:00.996Z,1
2019-03-10T21:46:03.531Z,1
2019-03-10T21:51:05.917Z,1
2019-03-10T21:56:08.406Z,1
2019-03-10T22:01:10.892Z,1
2019-03-10T22:06:13.302Z,1
2019-03-10T22:11:15.756Z,1
2019-03-10T22:16:18.307Z,1
2019-03-10T22:21:20.714Z,1
2019-03-10T22:26:23.135Z,1
2019-03-10T22:31:25.649Z,1
2019-03-10T22:36:28.092Z,1
2019-03-10T22:41:30.623Z,1
2019-03-10T22:46:33.007Z,1
2019-03-10T22:51:35.473Z,1
2019-03-10T22:56:37.941Z,1
2019-03-10T23:01:40.476Z,1
2019-03-10T23:06:42.842Z,1
2019-03-10T23:11:45.307Z,1
2019-03-10T23:16:47.939Z,1
2019-03-10T23:21:50.275Z,1
2019-03-10T23:26:52.700Z,4.5
2019-03-10T23:31:55.247Z,29.8
2019-03-10T23:37:02.628Z,94.5
2019-03-10T23:42:00.098Z,99.9
2019-03-10T23:47:02.664Z,99.9
2019-03-10T23:52:05.006Z,99.9
2019-03-10T23:57:07.477Z,99.9
